sensor_id;sensor_type;location;lat;lon;timestamp;pressure;altitude;pressure_sealevel;temperature;humidity
21779;BME280;11050;52.222;20.916;2024-01-10T00:02:01;101967.28;;;-7.02;93.03
21779;BME280;11050;52.222;20.916;2024-01-10T00:04:26;101968.53;;;-7.08;92.44
21779;BME280;11050;52.222;20.916;2024-01-10T00:06:52;101960.88;;;-7.00;92.38
21779;BME280;11050;52.222;20.916;2024-01-10T00:09:18;101947.41;;;-6.98;93.17
21779;BME280;11050;52.222;20.916;2024-01-10T00:11:44;101950.19;;;-7.00;92.78
21779;BME280;11050;52.222;20.916;2024-01-10T00:14:09;101958.66;;;-6.93;92.23
21779;BME280;11050;52.222;20.916;2024-01-10T00:16:36;101950.44;;;-6.90;91.12
21779;BME280;11050;52.222;20.916;2024-01-10T00:19:02;101962.44;;;-6.83;91.74
21779;BME280;11050;52.222;20.916;2024-01-10T00:21:28;101955.06;;;-6.80;90.97
21779;BME280;11050;52.222;20.916;2024-01-10T00:23:54;101957.63;;;-6.78;90.90
21779;BME280;11050;52.222;20.916;2024-01-10T00:26:20;101947.69;;;-6.76;90.19
21779;BME280;11050;52.222;20.916;2024-01-10T00:28:45;101941.28;;;-6.73;89.19
21779;BME280;11050;52.222;20.916;2024-01-10T00:31:12;101934.09;;;-6.73;88.58
21779;BME280;11050;52.222;20.916;2024-01-10T00:33:39;101938.50;;;-6.72;88.95
21779;BME280;11050;52.222;20.916;2024-01-10T00:36:06;101957.44;;;-6.75;88.05
21779;BME280;11050;52.222;20.916;2024-01-10T00:38:32;101953.56;;;-6.71;88.13
21779;BME280;11050;52.222;20.916;2024-01-10T00:40:58;101966.75;;;-6.68;87.78
21779;BME280;11050;52.222;20.916;2024-01-10T00:43:24;101959.38;;;-6.64;87.33
21779;BME280;11050;52.222;20.916;2024-01-10T00:45:50;101945.38;;;-6.68;86.85
21779;BME280;11050;52.222;20.916;2024-01-10T00:48:16;101943.63;;;-6.69;88.02
21779;BME280;11050;52.222;20.916;2024-01-10T00:50:43;101962.91;;;-6.64;86.44
21779;BME280;11050;52.222;20.916;2024-01-10T00:53:12;101952.00;;;-6.61;87.54
21779;BME280;11050;52.222;20.916;2024-01-10T00:55:38;101969.09;;;-6.63;87.13
21779;BME280;11050;52.222;20.916;2024-01-10T00:58:04;101966.13;;;-6.59;86.19
21779;BME280;11050;52.222;20.916;2024-01-10T01:00:30;101955.72;;;-6.63;86.31
21779;BME280;11050;52.222;20.916;2024-01-10T01:02:55;101959.66;;;-6.69;87.59
21779;BME280;11050;52.222;20.916;2024-01-10T01:05:21;101951.47;;;-6.66;88.01
21779;BME280;11050;52.222;20.916;2024-01-10T01:07:47;101953.56;;;-6.71;88.23
21779;BME280;11050;52.222;20.916;2024-01-10T01:10:13;101954.75;;;-6.75;88.32
21779;BME280;11050;52.222;20.916;2024-01-10T01:12:38;101947.91;;;-6.79;88.99
21779;BME280;11050;52.222;20.916;2024-01-10T01:15:05;101946.41;;;-6.83;89.77
21779;BME280;11050;52.222;20.916;2024-01-10T01:17:31;101937.50;;;-6.84;90.65
21779;BME280;11050;52.222;20.916;2024-01-10T01:19:57;101948.09;;;-6.82;90.87
21779;BME280;11050;52.222;20.916;2024-01-10T01:22:23;101943.84;;;-6.85;89.82
21779;BME280;11050;52.222;20.916;2024-01-10T01:24:48;101937.38;;;-6.95;90.55
21779;BME280;11050;52.222;20.916;2024-01-10T01:27:14;101932.03;;;-6.95;91.07
21779;BME280;11050;52.222;20.916;2024-01-10T01:29:40;101930.88;;;-6.91;91.13
21779;BME280;11050;52.222;20.916;2024-01-10T01:32:06;101934.41;;;-6.90;91.90
21779;BME280;11050;52.222;20.916;2024-01-10T01:34:31;101925.81;;;-6.95;91.43
21779;BME280;11050;52.222;20.916;2024-01-10T01:36:57;101923.81;;;-6.92;91.61
21779;BME280;11050;52.222;20.916;2024-01-10T01:39:23;101923.25;;;-6.97;91.37
21779;BME280;11050;52.222;20.916;2024-01-10T01:41:48;101923.38;;;-6.98;91.34
21779;BME280;11050;52.222;20.916;2024-01-10T01:44:14;101916.41;;;-7.01;91.81
21779;BME280;11050;52.222;20.916;2024-01-10T01:46:40;101925.47;;;-7.03;91.82
21779;BME280;11050;52.222;20.916;2024-01-10T01:49:07;101912.97;;;-7.03;91.76
21779;BME280;11050;52.222;20.916;2024-01-10T01:51:35;101911.78;;;-7.11;91.28
21779;BME280;11050;52.222;20.916;2024-01-10T01:54:07;101912.72;;;-7.12;92.93
21779;BME280;11050;52.222;20.916;2024-01-10T01:56:38;101907.22;;;-7.09;92.27
21779;BME280;11050;52.222;20.916;2024-01-10T01:59:05;101908.03;;;-7.09;92.03
21779;BME280;11050;52.222;20.916;2024-01-10T02:01:31;101908.91;;;-7.08;91.66
21779;BME280;11050;52.222;20.916;2024-01-10T02:03:57;101917.47;;;-7.03;91.51
21779;BME280;11050;52.222;20.916;2024-01-10T02:06:22;101899.63;;;-7.03;91.00
21779;BME280;11050;52.222;20.916;2024-01-10T02:08:49;101898.22;;;-7.08;91.82
21779;BME280;11050;52.222;20.916;2024-01-10T02:11:15;101911.19;;;-7.02;91.56
21779;BME280;11050;52.222;20.916;2024-01-10T02:13:41;101916.75;;;-7.05;91.94
21779;BME280;11050;52.222;20.916;2024-01-10T02:16:07;101909.97;;;-7.11;90.77
21779;BME280;11050;52.222;20.916;2024-01-10T02:18:34;101912.72;;;-7.12;91.27
21779;BME280;11050;52.222;20.916;2024-01-10T02:21:01;101918.72;;;-7.09;91.43
21779;BME280;11050;52.222;20.916;2024-01-10T02:23:26;101912.34;;;-7.06;91.51
21779;BME280;11050;52.222;20.916;2024-01-10T02:25:52;101923.25;;;-7.09;91.32
21779;BME280;11050;52.222;20.916;2024-01-10T02:28:18;101915.22;;;-7.09;90.75
21779;BME280;11050;52.222;20.916;2024-01-10T02:30:44;101917.13;;;-7.11;91.02
21779;BME280;11050;52.222;20.916;2024-01-10T02:33:10;101903.13;;;-7.15;91.24
21779;BME280;11050;52.222;20.916;2024-01-10T02:35:35;101919.06;;;-7.13;90.80
21779;BME280;11050;52.222;20.916;2024-01-10T02:38:03;101914.25;;;-7.08;90.69
21779;BME280;11050;52.222;20.916;2024-01-10T02:40:29;101916.91;;;-7.08;91.17
21779;BME280;11050;52.222;20.916;2024-01-10T02:42:55;101901.66;;;-7.06;90.88
21779;BME280;11050;52.222;20.916;2024-01-10T02:45:20;101898.75;;;-7.03;90.78
21779;BME280;11050;52.222;20.916;2024-01-10T02:47:46;101903.38;;;-7.05;90.74
21779;BME280;11050;52.222;20.916;2024-01-10T02:50:12;101900.13;;;-7.10;91.34
21779;BME280;11050;52.222;20.916;2024-01-10T02:52:38;101889.28;;;-7.07;91.80
21779;BME280;11050;52.222;20.916;2024-01-10T02:55:04;101888.06;;;-7.03;92.06
21779;BME280;11050;52.222;20.916;2024-01-10T02:57:30;101873.03;;;-7.04;91.75
21779;BME280;11050;52.222;20.916;2024-01-10T02:59:55;101868.53;;;-7.04;90.37
21779;BME280;11050;52.222;20.916;2024-01-10T03:02:21;101869.19;;;-7.00;91.58
21779;BME280;11050;52.222;20.916;2024-01-10T03:04:49;101875.59;;;-7.03;91.18
21779;BME280;11050;52.222;20.916;2024-01-10T03:07:14;101855.06;;;-7.15;90.89
21779;BME280;11050;52.222;20.916;2024-01-10T03:09:40;101858.69;;;-7.16;91.95
21779;BME280;11050;52.222;20.916;2024-01-10T03:12:06;101866.34;;;-7.24;91.73
21779;BME280;11050;52.222;20.916;2024-01-10T03:14:33;101856.91;;;-7.29;92.23
21779;BME280;11050;52.222;20.916;2024-01-10T03:17:00;101858.88;;;-7.19;92.46
21779;BME280;11050;52.222;20.916;2024-01-10T03:19:25;101865.28;;;-7.21;92.77
21779;BME280;11050;52.222;20.916;2024-01-10T03:21:51;101860.16;;;-7.24;92.95
21779;BME280;11050;52.222;20.916;2024-01-10T03:24:17;101857.28;;;-7.21;93.52
21779;BME280;11050;52.222;20.916;2024-01-10T03:26:43;101846.06;;;-7.26;93.59
21779;BME280;11050;52.222;20.916;2024-01-10T03:29:09;101841.34;;;-7.23;92.90
21779;BME280;11050;52.222;20.916;2024-01-10T03:31:34;101851.00;;;-7.20;92.82
21779;BME280;11050;52.222;20.916;2024-01-10T03:34:00;101852.69;;;-7.19;92.45
21779;BME280;11050;52.222;20.916;2024-01-10T03:36:26;101846.59;;;-7.21;92.84
21779;BME280;11050;52.222;20.916;2024-01-10T03:38:51;101852.16;;;-7.24;93.95
21779;BME280;11050;52.222;20.916;2024-01-10T03:41:19;101847.00;;;-7.27;92.92
21779;BME280;11050;52.222;20.916;2024-01-10T03:43:46;101852.22;;;-7.26;93.06
21779;BME280;11050;52.222;20.916;2024-01-10T03:46:12;101836.31;;;-7.27;93.69
21779;BME280;11050;52.222;20.916;2024-01-10T03:48:39;101848.06;;;-7.30;94.42
21779;BME280;11050;52.222;20.916;2024-01-10T03:51:16;101852.22;;;-7.26;94.00
21779;BME280;11050;52.222;20.916;2024-01-10T03:53:43;101840.50;;;-7.23;93.74
21779;BME280;11050;52.222;20.916;2024-01-10T03:56:11;101838.03;;;-7.26;92.88
21779;BME280;11050;52.222;20.916;2024-01-10T03:58:37;101837.06;;;-7.25;93.87
21779;BME280;11050;52.222;20.916;2024-01-10T04:01:07;101835.81;;;-7.20;92.94
21779;BME280;11050;52.222;20.916;2024-01-10T04:03:33;101833.66;;;-7.27;93.44
21779;BME280;11050;52.222;20.916;2024-01-10T04:06:00;101833.66;;;-7.27;93.74
21779;BME280;11050;52.222;20.916;2024-01-10T04:08:26;101833.00;;;-7.31;93.28
21779;BME280;11050;52.222;20.916;2024-01-10T04:10:52;101824.34;;;-7.34;92.65
21779;BME280;11050;52.222;20.916;2024-01-10T04:13:18;101811.75;;;-7.32;92.36
21779;BME280;11050;52.222;20.916;2024-01-10T04:15:43;101817.72;;;-7.29;92.28
21779;BME280;11050;52.222;20.916;2024-01-10T04:18:09;101818.47;;;-7.39;93.42
21779;BME280;11050;52.222;20.916;2024-01-10T04:20:35;101811.09;;;-7.36;92.94
21779;BME280;11050;52.222;20.916;2024-01-10T04:23:01;101813.97;;;-7.39;92.95
21779;BME280;11050;52.222;20.916;2024-01-10T04:25:26;101809.38;;;-7.37;93.77
21779;BME280;11050;52.222;20.916;2024-01-10T04:27:52;101804.13;;;-7.38;93.71
21779;BME280;11050;52.222;20.916;2024-01-10T04:30:18;101800.44;;;-7.36;93.09
21779;BME280;11050;52.222;20.916;2024-01-10T04:32:44;101800.72;;;-7.40;93.76
21779;BME280;11050;52.222;20.916;2024-01-10T04:35:09;101795.38;;;-7.40;93.25
21779;BME280;11050;52.222;20.916;2024-01-10T04:37:35;101795.72;;;-7.32;92.83
21779;BME280;11050;52.222;20.916;2024-01-10T04:40:01;101805.44;;;-7.31;93.04
21779;BME280;11050;52.222;20.916;2024-01-10T04:42:27;101800.44;;;-7.36;92.41
21779;BME280;11050;52.222;20.916;2024-01-10T04:44:52;101809.94;;;-7.32;92.77
21779;BME280;11050;52.222;20.916;2024-01-10T04:47:18;101812.50;;;-7.30;92.91
21779;BME280;11050;52.222;20.916;2024-01-10T04:49:44;101810.13;;;-7.35;92.23
21779;BME280;11050;52.222;20.916;2024-01-10T04:52:10;101810.03;;;-7.33;92.19
21779;BME280;11050;52.222;20.916;2024-01-10T04:54:35;101821.22;;;-7.41;92.61
21779;BME280;11050;52.222;20.916;2024-01-10T04:57:01;101811.75;;;-7.32;92.66
21779;BME280;11050;52.222;20.916;2024-01-10T04:59:27;101811.53;;;-7.29;91.54
21779;BME280;11050;52.222;20.916;2024-01-10T05:01:53;101817.59;;;-7.40;92.83
21779;BME280;11050;52.222;20.916;2024-01-10T05:04:19;101811.09;;;-7.36;92.68
21779;BME280;11050;52.222;20.916;2024-01-10T05:06:44;101815.78;;;-7.39;92.16
21779;BME280;11050;52.222;20.916;2024-01-10T05:09:10;101826.38;;;-7.38;91.99
21779;BME280;11050;52.222;20.916;2024-01-10T05:11:36;101826.38;;;-7.38;92.78
21779;BME280;11050;52.222;20.916;2024-01-10T05:14:03;101827.63;;;-7.43;91.93
21779;BME280;11050;52.222;20.916;2024-01-10T05:16:29;101833.84;;;-7.43;92.64
21779;BME280;11050;52.222;20.916;2024-01-10T05:18:55;101829.16;;;-7.39;92.66
21779;BME280;11050;52.222;20.916;2024-01-10T05:21:21;101826.13;;;-7.47;92.62
21779;BME280;11050;52.222;20.916;2024-01-10T05:23:47;101824.22;;;-7.45;91.86
21779;BME280;11050;52.222;20.916;2024-01-10T05:26:13;101830.41;;;-7.45;92.62
21779;BME280;11050;52.222;20.916;2024-01-10T05:28:38;101824.00;;;-7.42;91.50
21779;BME280;11050;52.222;20.916;2024-01-10T05:31:04;101820.56;;;-7.44;92.38
21779;BME280;11050;52.222;20.916;2024-01-10T05:33:30;101813.72;;;-7.48;91.67
21779;BME280;11050;52.222;20.916;2024-01-10T05:35:56;101819.06;;;-7.48;91.86
21779;BME280;11050;52.222;20.916;2024-01-10T05:38:23;101816.19;;;-7.45;90.87
21779;BME280;11050;52.222;20.916;2024-01-10T05:40:49;101820.13;;;-7.51;90.42
21779;BME280;11050;52.222;20.916;2024-01-10T05:43:16;101822.91;;;-7.52;91.22
21779;BME280;11050;52.222;20.916;2024-01-10T05:45:41;101820.88;;;-7.49;90.60
21779;BME280;11050;52.222;20.916;2024-01-10T05:48:07;101822.16;;;-7.54;90.71
21779;BME280;11050;52.222;20.916;2024-01-10T05:50:33;101826.84;;;-7.58;91.38
21779;BME280;11050;52.222;20.916;2024-01-10T05:52:58;101821.56;;;-7.59;91.05
21779;BME280;11050;52.222;20.916;2024-01-10T05:55:24;101805.78;;;-7.62;92.93
21779;BME280;11050;52.222;20.916;2024-01-10T05:57:50;101816.81;;;-7.54;93.03
21779;BME280;11050;52.222;20.916;2024-01-10T06:00:16;101822.97;;;-7.54;91.82
21779;BME280;11050;52.222;20.916;2024-01-10T06:02:43;101814.16;;;-7.54;91.96
21779;BME280;11050;52.222;20.916;2024-01-10T06:05:10;101814.56;;;-7.48;92.36
21779;BME280;11050;52.222;20.916;2024-01-10T06:07:37;101809.25;;;-7.48;92.51
21779;BME280;11050;52.222;20.916;2024-01-10T06:10:04;101810.41;;;-7.52;92.53
21779;BME280;11050;52.222;20.916;2024-01-10T06:12:30;101792.56;;;-7.51;92.58
21779;BME280;11050;52.222;20.916;2024-01-10T06:14:55;101792.16;;;-7.45;92.44
21779;BME280;11050;52.222;20.916;2024-01-10T06:17:21;101788.09;;;-7.51;92.53
21779;BME280;11050;52.222;20.916;2024-01-10T06:19:47;101795.78;;;-7.46;93.05
21779;BME280;11050;52.222;20.916;2024-01-10T06:22:13;101800.59;;;-7.51;92.69
21779;BME280;11050;52.222;20.916;2024-01-10T06:24:39;101795.13;;;-7.50;93.14
21779;BME280;11050;52.222;20.916;2024-01-10T06:27:06;101789.91;;;-7.51;92.66
21779;BME280;11050;52.222;20.916;2024-01-10T06:29:32;101792.03;;;-7.56;92.53
21779;BME280;11050;52.222;20.916;2024-01-10T06:31:59;101798.94;;;-7.66;92.59
21779;BME280;11050;52.222;20.916;2024-01-10T06:34:27;101796.50;;;-7.57;94.00
21779;BME280;11050;52.222;20.916;2024-01-10T06:36:53;101806.72;;;-7.63;93.65
21779;BME280;11050;52.222;20.916;2024-01-10T06:39:19;101808.06;;;-7.56;93.22
21779;BME280;11050;52.222;20.916;2024-01-10T06:41:48;101813.06;;;-7.52;93.06
21779;BME280;11050;52.222;20.916;2024-01-10T06:44:15;101822.16;;;-7.54;92.83
21779;BME280;11050;52.222;20.916;2024-01-10T06:46:43;101825.56;;;-7.52;93.61
21779;BME280;11050;52.222;20.916;2024-01-10T06:49:10;101817.56;;;-7.52;92.69
21779;BME280;11050;52.222;20.916;2024-01-10T06:51:36;101805.16;;;-7.53;93.92
21779;BME280;11050;52.222;20.916;2024-01-10T06:54:02;101815.56;;;-7.49;92.88
21779;BME280;11050;52.222;20.916;2024-01-10T06:56:34;101811.25;;;-7.51;93.71
21779;BME280;11050;52.222;20.916;2024-01-10T06:59:01;101817.66;;;-7.54;94.35
21779;BME280;11050;52.222;20.916;2024-01-10T07:01:27;101815.66;;;-7.50;94.73
21779;BME280;11050;52.222;20.916;2024-01-10T07:03:54;101820.25;;;-7.52;94.00
21779;BME280;11050;52.222;20.916;2024-01-10T07:06:23;101811.25;;;-7.51;94.64
21779;BME280;11050;52.222;20.916;2024-01-10T07:08:50;101810.22;;;-7.49;94.76
21779;BME280;11050;52.222;20.916;2024-01-10T07:11:17;101818.75;;;-7.44;94.27
21779;BME280;11050;52.222;20.916;2024-01-10T07:13:43;101821.97;;;-7.39;94.42
21779;BME280;11050;52.222;20.916;2024-01-10T07:16:09;101818.91;;;-7.33;94.23
21779;BME280;11050;52.222;20.916;2024-01-10T07:18:35;101820.41;;;-7.29;94.32
21779;BME280;11050;52.222;20.916;2024-01-10T07:21:01;101825.38;;;-7.37;93.44
21779;BME280;11050;52.222;20.916;2024-01-10T07:23:27;101827.38;;;-7.26;93.58
21779;BME280;11050;52.222;20.916;2024-01-10T07:25:53;101833.53;;;-7.26;93.40
21779;BME280;11050;52.222;20.916;2024-01-10T07:28:19;101823.53;;;-7.22;93.77
21779;BME280;11050;52.222;20.916;2024-01-10T07:30:46;101821.94;;;-7.12;93.60
21779;BME280;11050;52.222;20.916;2024-01-10T07:33:12;101832.06;;;-7.17;92.53
21779;BME280;11050;52.222;20.916;2024-01-10T07:35:38;101818.44;;;-7.13;91.98
21779;BME280;11050;52.222;20.916;2024-01-10T07:38:07;101815.44;;;-7.08;91.76
21779;BME280;11050;52.222;20.916;2024-01-10T07:40:34;101821.28;;;-7.03;92.80
21779;BME280;11050;52.222;20.916;2024-01-10T07:43:00;101813.28;;;-7.03;92.20
21779;BME280;11050;52.222;20.916;2024-01-10T07:45:26;101812.75;;;-6.96;92.17
21779;BME280;11050;52.222;20.916;2024-01-10T07:47:52;101821.97;;;-6.87;91.41
21779;BME280;11050;52.222;20.916;2024-01-10T07:50:18;101816.22;;;-6.81;91.30
21779;BME280;11050;52.222;20.916;2024-01-10T07:52:46;101807.34;;;-6.82;91.40
21779;BME280;11050;52.222;20.916;2024-01-10T07:55:12;101832.25;;;-6.81;90.58
21779;BME280;11050;52.222;20.916;2024-01-10T07:57:38;101817.72;;;-6.77;91.04
21779;BME280;11050;52.222;20.916;2024-01-10T08:00:06;101823.69;;;-6.73;90.00
21779;BME280;11050;52.222;20.916;2024-01-10T08:02:35;101821.22;;;-6.77;89.97
21779;BME280;11050;52.222;20.916;2024-01-10T08:05:03;101826.50;;;-6.75;90.56
21779;BME280;11050;52.222;20.916;2024-01-10T08:07:34;101829.16;;;-6.75;90.25
21779;BME280;11050;52.222;20.916;2024-01-10T08:10:07;101825.09;;;-6.68;90.22
21779;BME280;11050;52.222;20.916;2024-01-10T08:12:35;101812.38;;;-6.64;90.22
21779;BME280;11050;52.222;20.916;2024-01-10T08:15:01;101814.28;;;-6.54;89.67
21779;BME280;11050;52.222;20.916;2024-01-10T08:17:27;101816.00;;;-6.53;89.83
21779;BME280;11050;52.222;20.916;2024-01-10T08:19:53;101820.16;;;-6.49;89.60
21779;BME280;11050;52.222;20.916;2024-01-10T08:22:19;101822.50;;;-6.44;89.03
21779;BME280;11050;52.222;20.916;2024-01-10T08:24:46;101825.72;;;-6.39;88.96
21779;BME280;11050;52.222;20.916;2024-01-10T08:27:12;101831.06;;;-6.39;88.76
21779;BME280;11050;52.222;20.916;2024-01-10T08:29:38;101823.47;;;-6.33;89.59
21779;BME280;11050;52.222;20.916;2024-01-10T08:32:04;101817.69;;;-6.27;88.65
21779;BME280;11050;52.222;20.916;2024-01-10T08:34:30;101822.47;;;-6.19;88.47
21779;BME280;11050;52.222;20.916;2024-01-10T08:36:56;101823.22;;;-6.17;89.16
21779;BME280;11050;52.222;20.916;2024-01-10T08:39:22;101817.88;;;-6.17;89.02
21779;BME280;11050;52.222;20.916;2024-01-10T08:41:50;101824.91;;;-6.04;89.51
21779;BME280;11050;52.222;20.916;2024-01-10T08:44:16;101814.41;;;-5.94;89.06
21779;BME280;11050;52.222;20.916;2024-01-10T08:46:41;101803.13;;;-5.87;88.89
21779;BME280;11050;52.222;20.916;2024-01-10T08:49:07;101808.38;;;-5.85;88.76
21779;BME280;11050;52.222;20.916;2024-01-10T08:51:33;101806.44;;;-5.83;88.41
21779;BME280;11050;52.222;20.916;2024-01-10T08:53:59;101804.25;;;-5.78;89.22
21779;BME280;11050;52.222;20.916;2024-01-10T08:56:25;101818.78;;;-5.69;88.31
21779;BME280;11050;52.222;20.916;2024-01-10T08:58:52;101817.50;;;-5.77;89.23
21779;BME280;11050;52.222;20.916;2024-01-10T09:01:18;101823.22;;;-5.57;89.48
21779;BME280;11050;52.222;20.916;2024-01-10T09:03:44;101819.03;;;-5.49;89.52
21779;BME280;11050;52.222;20.916;2024-01-10T09:06:10;101828.00;;;-5.50;88.50
21779;BME280;11050;52.222;20.916;2024-01-10T09:08:36;101837.06;;;-5.40;89.17
21779;BME280;11050;52.222;20.916;2024-01-10T09:11:02;101839.31;;;-5.34;89.49
21779;BME280;11050;52.222;20.916;2024-01-10T09:13:28;101836.78;;;-5.24;89.20
21779;BME280;11050;52.222;20.916;2024-01-10T09:15:55;101834.03;;;-5.12;88.19
21779;BME280;11050;52.222;20.916;2024-01-10T09:18:21;101835.06;;;-5.02;88.16
21779;BME280;11050;52.222;20.916;2024-01-10T09:20:47;101836.91;;;-4.91;88.19
21779;BME280;11050;52.222;20.916;2024-01-10T09:23:14;101832.56;;;-4.81;87.29
21779;BME280;11050;52.222;20.916;2024-01-10T09:25:39;101831.09;;;-4.74;86.20
21779;BME280;11050;52.222;20.916;2024-01-10T09:28:05;101829.75;;;-4.68;85.67
21779;BME280;11050;52.222;20.916;2024-01-10T09:30:31;101824.06;;;-4.64;85.64
21779;BME280;11050;52.222;20.916;2024-01-10T09:32:57;101821.50;;;-4.54;86.07
21779;BME280;11050;52.222;20.916;2024-01-10T09:35:24;101817.25;;;-4.46;86.33
21779;BME280;11050;52.222;20.916;2024-01-10T09:37:50;101818.59;;;-4.40;85.50
21779;BME280;11050;52.222;20.916;2024-01-10T09:40:16;101815.56;;;-4.36;85.49
21779;BME280;11050;52.222;20.916;2024-01-10T09:42:44;101820.91;;;-4.36;84.91
21779;BME280;11050;52.222;20.916;2024-01-10T09:45:10;101824.81;;;-4.29;85.11
21779;BME280;11050;52.222;20.916;2024-01-10T09:47:41;101819.94;;;-4.24;85.54
21779;BME280;11050;52.222;20.916;2024-01-10T09:50:09;101810.06;;;-4.23;85.59
21779;BME280;11050;52.222;20.916;2024-01-10T09:52:50;101811.97;;;-4.03;85.64
21779;BME280;11050;52.222;20.916;2024-01-10T09:55:17;101829.06;;;-3.93;84.81
21779;BME280;11050;52.222;20.916;2024-01-10T09:57:44;101818.94;;;-3.90;84.45
21779;BME280;11050;52.222;20.916;2024-01-10T10:00:11;101834.91;;;-3.88;84.59
21779;BME280;11050;52.222;20.916;2024-01-10T10:02:41;101833.34;;;-3.91;83.78
21779;BME280;11050;52.222;20.916;2024-01-10T10:05:14;101836.03;;;-3.91;84.60
21779;BME280;11050;52.222;20.916;2024-01-10T10:07:49;101822.69;;;-3.92;85.05
21779;BME280;11050;52.222;20.916;2024-01-10T10:10:17;101828.56;;;-3.87;85.30
21779;BME280;11050;52.222;20.916;2024-01-10T10:12:52;101828.09;;;-3.81;85.09
21779;BME280;11050;52.222;20.916;2024-01-10T10:15:21;101816.94;;;-3.76;85.34
21779;BME280;11050;52.222;20.916;2024-01-10T10:17:50;101821.38;;;-3.75;85.32
21779;BME280;11050;52.222;20.916;2024-01-10T10:20:26;101817.91;;;-3.66;85.72
21779;BME280;11050;52.222;20.916;2024-01-10T10:23:07;101815.06;;;-3.54;86.04
21779;BME280;11050;52.222;20.916;2024-01-10T10:25:42;101820.53;;;-3.44;85.00
21779;BME280;11050;52.222;20.916;2024-01-10T10:28:08;101801.59;;;-3.43;85.70
21779;BME280;11050;52.222;20.916;2024-01-10T10:30:34;101802.19;;;-3.39;85.45
21779;BME280;11050;52.222;20.916;2024-01-10T10:33:02;101799.84;;;-3.33;85.77
21779;BME280;11050;52.222;20.916;2024-01-10T10:35:28;101802.72;;;-3.14;85.00
21779;BME280;11050;52.222;20.916;2024-01-10T10:37:54;101785.31;;;-3.30;85.78
21779;BME280;11050;52.222;20.916;2024-01-10T10:40:21;101774.44;;;-3.29;86.69
21779;BME280;11050;52.222;20.916;2024-01-10T10:42:49;101774.59;;;-3.10;86.26
21779;BME280;11050;52.222;20.916;2024-01-10T10:45:19;101780.94;;;-2.90;85.06
21779;BME280;11050;52.222;20.916;2024-01-10T10:48:01;101783.09;;;-2.84;84.68
21779;BME280;11050;52.222;20.916;2024-01-10T10:50:34;101777.94;;;-2.76;84.62
21779;BME280;11050;52.222;20.916;2024-01-10T10:53:03;101789.13;;;-2.71;84.72
21779;BME280;11050;52.222;20.916;2024-01-10T10:55:29;101774.44;;;-2.67;84.14
21779;BME280;11050;52.222;20.916;2024-01-10T10:57:57;101767.38;;;-2.68;83.85
21779;BME280;11050;52.222;20.916;2024-01-10T11:00:24;101760.31;;;-2.59;83.95
21779;BME280;11050;52.222;20.916;2024-01-10T11:02:56;101762.06;;;-2.49;83.64
21779;BME280;11050;52.222;20.916;2024-01-10T11:05:26;101754.50;;;-2.34;83.65
21779;BME280;11050;52.222;20.916;2024-01-10T11:07:53;101759.09;;;-2.16;82.84
21779;BME280;11050;52.222;20.916;2024-01-10T11:10:28;101755.47;;;-1.96;81.66
21779;BME280;11050;52.222;20.916;2024-01-10T11:25:05;101752.91;;;-0.73;75.22
21779;BME280;11050;52.222;20.916;2024-01-10T11:27:32;101742.00;;;-0.81;75.21
21779;BME280;11050;52.222;20.916;2024-01-10T11:29:57;101741.38;;;-0.56;75.05
21779;BME280;11050;52.222;20.916;2024-01-10T11:32:24;101742.50;;;-0.22;73.89
21779;BME280;11050;52.222;20.916;2024-01-10T11:34:55;101735.72;;;0.19;72.13
21779;BME280;11050;52.222;20.916;2024-01-10T11:37:23;101728.38;;;0.56;69.96
21779;BME280;11050;52.222;20.916;2024-01-10T11:39:53;101722.94;;;0.74;68.95
21779;BME280;11050;52.222;20.916;2024-01-10T11:42:45;101716.56;;;1.01;65.77
21779;BME280;11050;52.222;20.916;2024-01-10T11:48:00;101718.34;;;1.69;62.31
21779;BME280;11050;52.222;20.916;2024-01-10T11:50:27;101729.53;;;1.66;60.49
21779;BME280;11050;52.222;20.916;2024-01-10T11:52:54;101723.72;;;1.61;60.44
21779;BME280;11050;52.222;20.916;2024-01-10T11:55:50;101704.25;;;1.57;60.78
21779;BME280;11050;52.222;20.916;2024-01-10T11:58:17;101698.13;;;1.55;61.65
21779;BME280;11050;52.222;20.916;2024-01-10T12:00:43;101701.06;;;1.70;61.12
21779;BME280;11050;52.222;20.916;2024-01-10T12:03:11;101699.81;;;1.90;59.00
21779;BME280;11050;52.222;20.916;2024-01-10T12:05:38;101699.47;;;1.93;59.02
21779;BME280;11050;52.222;20.916;2024-01-10T12:08:10;101705.09;;;2.00;58.17
21779;BME280;11050;52.222;20.916;2024-01-10T12:10:36;101714.63;;;2.12;58.80
21779;BME280;11050;52.222;20.916;2024-01-10T12:13:05;101702.81;;;2.37;57.01
21779;BME280;11050;52.222;20.916;2024-01-10T12:15:31;101704.22;;;2.65;57.17
21779;BME280;11050;52.222;20.916;2024-01-10T12:17:57;101703.53;;;2.87;54.13
21779;BME280;11050;52.222;20.916;2024-01-10T12:20:23;101708.97;;;2.95;53.49
21779;BME280;11050;52.222;20.916;2024-01-10T12:22:48;101698.31;;;3.02;53.78
21779;BME280;11050;52.222;20.916;2024-01-10T12:25:14;101704.38;;;3.04;52.86
21779;BME280;11050;52.222;20.916;2024-01-10T12:27:40;101698.09;;;3.11;52.88
21779;BME280;11050;52.222;20.916;2024-01-10T12:30:06;101697.91;;;3.21;52.43
21779;BME280;11050;52.222;20.916;2024-01-10T12:32:33;101698.59;;;3.31;51.85
21779;BME280;11050;52.222;20.916;2024-01-10T12:35:03;101715.06;;;3.21;50.71
21779;BME280;11050;52.222;20.916;2024-01-10T12:37:30;101704.38;;;3.20;50.92
21779;BME280;11050;52.222;20.916;2024-01-10T12:39:57;101706.75;;;3.23;50.41
21779;BME280;11050;52.222;20.916;2024-01-10T12:42:23;101708.59;;;3.30;51.40
21779;BME280;11050;52.222;20.916;2024-01-10T12:44:49;101704.97;;;3.62;51.09
21779;BME280;11050;52.222;20.916;2024-01-10T12:47:19;101698.31;;;3.64;49.75
21779;BME280;11050;52.222;20.916;2024-01-10T12:49:47;101701.25;;;3.55;49.58
21779;BME280;11050;52.222;20.916;2024-01-10T12:52:13;101706.66;;;3.55;49.91
21779;BME280;11050;52.222;20.916;2024-01-10T12:54:40;101693.63;;;3.42;49.16